sensor_id;sensor_type;location;lat;lon;timestamp;P1;durP1;ratioP1;P2;durP2;ratioP2
58354;SDS011;44160;49.080;19.302;2023-05-23T00:02:08;5.57;;;3.95;;
58354;SDS011;44160;49.080;19.302;2023-05-23T00:04:37;6.70;;;4.13;;
58354;SDS011;44160;49.080;19.302;2023-05-23T00:07:03;11.73;;;5.30;;
58354;SDS011;44160;49.080;19.302;2023-05-23T00:09:29;8.80;;;4.55;;
58354;SDS011;44160;49.080;19.302;2023-05-23T00:11:56;6.20;;;4.15;;
58354;SDS011;44160;49.080;19.302;2023-05-23T00:14:22;8.25;;;4.15;;
58354;SDS011;44160;49.080;19.302;2023-05-23T00:16:48;4.15;;;3.40;;
58354;SDS011;44160;49.080;19.302;2023-05-23T00:19:15;9.10;;;4.38;;
58354;SDS011;44160;49.080;19.302;2023-05-23T00:21:42;9.90;;;4.93;;
58354;SDS011;44160;49.080;19.302;2023-05-23T00:24:09;22.10;;;9.13;;
58354;SDS011;44160;49.080;19.302;2023-05-23T00:26:35;17.77;;;7.70;;
58354;SDS011;44160;49.080;19.302;2023-05-23T00:29:02;14.95;;;6.60;;
58354;SDS011;44160;49.080;19.302;2023-05-23T00:31:28;16.08;;;6.93;;
58354;SDS011;44160;49.080;19.302;2023-05-23T00:33:55;17.25;;;8.45;;
58354;SDS011;44160;49.080;19.302;2023-05-23T00:36:21;29.98;;;12.10;;
58354;SDS011;44160;49.080;19.302;2023-05-23T00:38:47;25.23;;;9.75;;
58354;SDS011;44160;49.080;19.302;2023-05-23T00:41:13;19.60;;;6.72;;
58354;SDS011;44160;49.080;19.302;2023-05-23T00:43:40;13.70;;;6.82;;
58354;SDS011;44160;49.080;19.302;2023-05-23T00:46:06;15.88;;;7.78;;
58354;SDS011;44160;49.080;19.302;2023-05-23T00:48:32;15.35;;;7.85;;
58354;SDS011;44160;49.080;19.302;2023-05-23T00:50:59;18.45;;;7.28;;
58354;SDS011;44160;49.080;19.302;2023-05-23T00:53:26;13.60;;;6.95;;
58354;SDS011;44160;49.080;19.302;2023-05-23T00:55:52;11.82;;;6.85;;
58354;SDS011;44160;49.080;19.302;2023-05-23T00:58:18;7.03;;;4.60;;
58354;SDS011;44160;49.080;19.302;2023-05-23T01:00:44;5.80;;;4.00;;
58354;SDS011;44160;49.080;19.302;2023-05-23T01:03:12;7.28;;;4.03;;
58354;SDS011;44160;49.080;19.302;2023-05-23T01:05:42;9.93;;;5.15;;
58354;SDS011;44160;49.080;19.302;2023-05-23T01:08:08;13.35;;;6.47;;
58354;SDS011;44160;49.080;19.302;2023-05-23T01:10:39;14.68;;;8.45;;
58354;SDS011;44160;49.080;19.302;2023-05-23T01:15:35;7.45;;;4.40;;
58354;SDS011;44160;49.080;19.302;2023-05-23T01:18:05;6.78;;;4.60;;
58354;SDS011;44160;49.080;19.302;2023-05-23T01:20:34;7.70;;;4.67;;
58354;SDS011;44160;49.080;19.302;2023-05-23T01:28:22;6.38;;;4.28;;
58354;SDS011;44160;49.080;19.302;2023-05-23T01:30:51;6.82;;;4.13;;
58354;SDS011;44160;49.080;19.302;2023-05-23T01:33:18;6.22;;;4.00;;
58354;SDS011;44160;49.080;19.302;2023-05-23T01:35:45;7.72;;;4.15;;
58354;SDS011;44160;49.080;19.302;2023-05-23T01:38:11;4.97;;;3.63;;
58354;SDS011;44160;49.080;19.302;2023-05-23T01:40:37;9.55;;;4.25;;
58354;SDS011;44160;49.080;19.302;2023-05-23T01:43:03;7.07;;;4.13;;
58354;SDS011;44160;49.080;19.302;2023-05-23T01:45:29;6.13;;;3.60;;
58354;SDS011;44160;49.080;19.302;2023-05-23T01:47:56;5.25;;;3.90;;
58354;SDS011;44160;49.080;19.302;2023-05-23T01:50:23;7.70;;;3.90;;
58354;SDS011;44160;49.080;19.302;2023-05-23T01:52:50;4.88;;;3.47;;
58354;SDS011;44160;49.080;19.302;2023-05-23T01:55:18;7.18;;;4.00;;
58354;SDS011;44160;49.080;19.302;2023-05-23T01:57:54;6.13;;;4.43;;
58354;SDS011;44160;49.080;19.302;2023-05-23T02:00:21;6.22;;;3.67;;
58354;SDS011;44160;49.080;19.302;2023-05-23T02:02:47;9.43;;;4.22;;
58354;SDS011;44160;49.080;19.302;2023-05-23T02:05:13;8.20;;;3.88;;
58354;SDS011;44160;49.080;19.302;2023-05-23T02:07:39;9.82;;;4.30;;
58354;SDS011;44160;49.080;19.302;2023-05-23T02:10:08;6.57;;;4.07;;
58354;SDS011;44160;49.080;19.302;2023-05-23T02:12:35;8.52;;;5.13;;
58354;SDS011;44160;49.080;19.302;2023-05-23T02:15:01;11.38;;;4.38;;
58354;SDS011;44160;49.080;19.302;2023-05-23T02:17:27;8.18;;;4.57;;
58354;SDS011;44160;49.080;19.302;2023-05-23T02:19:53;7.90;;;4.57;;
58354;SDS011;44160;49.080;19.302;2023-05-23T02:22:23;5.38;;;3.72;;
58354;SDS011;44160;49.080;19.302;2023-05-23T02:24:50;6.45;;;4.60;;
58354;SDS011;44160;49.080;19.302;2023-05-23T02:27:16;5.32;;;4.40;;
58354;SDS011;44160;49.080;19.302;2023-05-23T02:29:42;6.93;;;4.95;;
58354;SDS011;44160;49.080;19.302;2023-05-23T02:32:08;5.78;;;4.05;;
58354;SDS011;44160;49.080;19.302;2023-05-23T02:34:34;6.32;;;4.30;;
58354;SDS011;44160;49.080;19.302;2023-05-23T02:37:02;6.47;;;4.70;;
58354;SDS011;44160;49.080;19.302;2023-05-23T02:39:28;6.32;;;3.70;;
58354;SDS011;44160;49.080;19.302;2023-05-23T02:41:54;5.30;;;4.07;;
58354;SDS011;44160;49.080;19.302;2023-05-23T02:44:20;6.95;;;3.95;;
58354;SDS011;44160;49.080;19.302;2023-05-23T02:46:46;6.05;;;3.78;;
58354;SDS011;44160;49.080;19.302;2023-05-23T02:49:12;5.68;;;4.32;;
58354;SDS011;44160;49.080;19.302;2023-05-23T02:51:38;4.53;;;3.70;;
58354;SDS011;44160;49.080;19.302;2023-05-23T02:54:04;6.18;;;4.63;;
58354;SDS011;44160;49.080;19.302;2023-05-23T02:56:30;8.43;;;4.80;;
58354;SDS011;44160;49.080;19.302;2023-05-23T02:58:56;6.63;;;4.20;;
58354;SDS011;44160;49.080;19.302;2023-05-23T03:01:22;6.10;;;4.47;;
58354;SDS011;44160;49.080;19.302;2023-05-23T03:03:48;7.30;;;4.18;;
58354;SDS011;44160;49.080;19.302;2023-05-23T03:06:14;6.00;;;4.43;;
58354;SDS011;44160;49.080;19.302;2023-05-23T03:08:41;6.78;;;4.28;;
58354;SDS011;44160;49.080;19.302;2023-05-23T03:11:07;7.75;;;3.83;;
58354;SDS011;44160;49.080;19.302;2023-05-23T03:13:36;6.00;;;3.92;;
58354;SDS011;44160;49.080;19.302;2023-05-23T03:16:02;11.30;;;4.70;;
58354;SDS011;44160;49.080;19.302;2023-05-23T03:18:28;8.10;;;3.78;;
58354;SDS011;44160;49.080;19.302;2023-05-23T03:20:57;12.93;;;4.50;;
58354;SDS011;44160;49.080;19.302;2023-05-23T03:23:23;6.50;;;3.92;;
58354;SDS011;44160;49.080;19.302;2023-05-23T03:25:50;5.18;;;3.72;;
58354;SDS011;44160;49.080;19.302;2023-05-23T03:28:16;9.48;;;4.20;;
58354;SDS011;44160;49.080;19.302;2023-05-23T03:30:42;10.02;;;4.47;;
58354;SDS011;44160;49.080;19.302;2023-05-23T03:33:08;7.63;;;3.90;;
58354;SDS011;44160;49.080;19.302;2023-05-23T03:35:35;8.23;;;4.22;;
58354;SDS011;44160;49.080;19.302;2023-05-23T03:38:01;5.13;;;4.07;;
58354;SDS011;44160;49.080;19.302;2023-05-23T03:40:28;11.02;;;4.53;;
58354;SDS011;44160;49.080;19.302;2023-05-23T03:43:00;7.70;;;4.40;;
58354;SDS011;44160;49.080;19.302;2023-05-23T03:45:27;8.18;;;4.10;;
58354;SDS011;44160;49.080;19.302;2023-05-23T03:47:53;9.00;;;4.50;;
58354;SDS011;44160;49.080;19.302;2023-05-23T03:50:22;9.45;;;4.70;;
58354;SDS011;44160;49.080;19.302;2023-05-23T03:52:48;8.75;;;4.90;;
58354;SDS011;44160;49.080;19.302;2023-05-23T03:55:14;8.02;;;6.00;;
58354;SDS011;44160;49.080;19.302;2023-05-23T03:57:40;9.02;;;6.38;;
58354;SDS011;44160;49.080;19.302;2023-05-23T04:00:07;11.30;;;6.25;;
58354;SDS011;44160;49.080;19.302;2023-05-23T04:02:36;11.40;;;6.38;;
58354;SDS011;44160;49.080;19.302;2023-05-23T04:05:05;9.82;;;5.53;;
58354;SDS011;44160;49.080;19.302;2023-05-23T04:07:32;10.60;;;4.82;;
58354;SDS011;44160;49.080;19.302;2023-05-23T04:09:59;8.45;;;4.53;;
58354;SDS011;44160;49.080;19.302;2023-05-23T04:12:25;11.85;;;4.80;;
58354;SDS011;44160;49.080;19.302;2023-05-23T04:14:51;14.18;;;5.25;;
58354;SDS011;44160;49.080;19.302;2023-05-23T04:17:17;13.18;;;4.43;;
58354;SDS011;44160;49.080;19.302;2023-05-23T04:19:43;13.15;;;5.68;;
58354;SDS011;44160;49.080;19.302;2023-05-23T04:22:09;12.18;;;4.60;;
58354;SDS011;44160;49.080;19.302;2023-05-23T04:24:36;13.15;;;4.72;;
58354;SDS011;44160;49.080;19.302;2023-05-23T04:27:02;9.32;;;4.55;;
58354;SDS011;44160;49.080;19.302;2023-05-23T04:29:28;15.35;;;4.65;;
58354;SDS011;44160;49.080;19.302;2023-05-23T04:31:56;10.73;;;4.90;;
58354;SDS011;44160;49.080;19.302;2023-05-23T04:34:22;7.38;;;4.57;;
58354;SDS011;44160;49.080;19.302;2023-05-23T04:36:48;14.35;;;5.07;;
58354;SDS011;44160;49.080;19.302;2023-05-23T04:39:15;8.20;;;4.30;;
58354;SDS011;44160;49.080;19.302;2023-05-23T04:41:42;11.98;;;4.60;;
58354;SDS011;44160;49.080;19.302;2023-05-23T04:44:09;11.13;;;5.13;;
58354;SDS011;44160;49.080;19.302;2023-05-23T04:46:35;12.02;;;4.90;;
58354;SDS011;44160;49.080;19.302;2023-05-23T04:49:05;11.13;;;5.20;;
58354;SDS011;44160;49.080;19.302;2023-05-23T04:51:31;9.10;;;4.57;;
58354;SDS011;44160;49.080;19.302;2023-05-23T04:53:58;9.60;;;4.80;;
58354;SDS011;44160;49.080;19.302;2023-05-23T04:56:24;7.55;;;4.22;;
58354;SDS011;44160;49.080;19.302;2023-05-23T04:58:52;8.15;;;4.40;;
58354;SDS011;44160;49.080;19.302;2023-05-23T05:01:18;11.40;;;5.43;;
58354;SDS011;44160;49.080;19.302;2023-05-23T05:03:44;11.95;;;4.68;;
58354;SDS011;44160;49.080;19.302;2023-05-23T05:06:12;10.10;;;4.38;;
58354;SDS011;44160;49.080;19.302;2023-05-23T05:08:38;10.85;;;4.10;;
58354;SDS011;44160;49.080;19.302;2023-05-23T05:11:08;9.90;;;4.65;;
58354;SDS011;44160;49.080;19.302;2023-05-23T05:13:35;14.32;;;4.68;;
58354;SDS011;44160;49.080;19.302;2023-05-23T05:16:01;11.05;;;5.45;;
58354;SDS011;44160;49.080;19.302;2023-05-23T05:18:28;10.27;;;4.63;;
58354;SDS011;44160;49.080;19.302;2023-05-23T05:20:54;6.90;;;4.30;;
58354;SDS011;44160;49.080;19.302;2023-05-23T05:23:23;9.90;;;4.43;;
58354;SDS011;44160;49.080;19.302;2023-05-23T05:25:49;6.20;;;3.90;;
58354;SDS011;44160;49.080;19.302;2023-05-23T05:28:15;13.88;;;4.13;;
58354;SDS011;44160;49.080;19.302;2023-05-23T05:30:42;5.22;;;3.45;;
58354;SDS011;44160;49.080;19.302;2023-05-23T05:33:10;8.43;;;4.13;;
58354;SDS011;44160;49.080;19.302;2023-05-23T05:35:36;7.00;;;4.30;;
58354;SDS011;44160;49.080;19.302;2023-05-23T05:38:05;7.97;;;3.70;;
58354;SDS011;44160;49.080;19.302;2023-05-23T05:40:32;8.15;;;3.90;;
58354;SDS011;44160;49.080;19.302;2023-05-23T05:42:58;7.55;;;4.63;;
58354;SDS011;44160;49.080;19.302;2023-05-23T05:45:24;5.07;;;4.03;;
58354;SDS011;44160;49.080;19.302;2023-05-23T05:47:50;5.65;;;4.15;;
58354;SDS011;44160;49.080;19.302;2023-05-23T05:50:16;8.15;;;4.28;;
58354;SDS011;44160;49.080;19.302;2023-05-23T05:52:45;13.70;;;4.95;;
58354;SDS011;44160;49.080;19.302;2023-05-23T05:55:11;6.60;;;4.45;;
58354;SDS011;44160;49.080;19.302;2023-05-23T05:57:38;7.68;;;4.78;;
58354;SDS011;44160;49.080;19.302;2023-05-23T06:00:07;7.07;;;4.30;;
58354;SDS011;44160;49.080;19.302;2023-05-23T06:02:41;7.15;;;4.10;;
58354;SDS011;44160;49.080;19.302;2023-05-23T06:05:07;11.07;;;3.92;;
58354;SDS011;44160;49.080;19.302;2023-05-23T06:07:38;7.93;;;3.90;;
58354;SDS011;44160;49.080;19.302;2023-05-23T06:10:05;8.35;;;5.50;;
58354;SDS011;44160;49.080;19.302;2023-05-23T06:12:31;6.53;;;3.90;;
58354;SDS011;44160;49.080;19.302;2023-05-23T06:14:57;6.22;;;3.72;;
58354;SDS011;44160;49.080;19.302;2023-05-23T06:17:24;11.88;;;4.78;;
58354;SDS011;44160;49.080;19.302;2023-05-23T06:19:50;10.30;;;4.30;;
58354;SDS011;44160;49.080;19.302;2023-05-23T06:22:17;8.73;;;4.80;;
58354;SDS011;44160;49.080;19.302;2023-05-23T06:24:43;6.72;;;3.58;;
58354;SDS011;44160;49.080;19.302;2023-05-23T06:27:09;7.57;;;3.92;;
58354;SDS011;44160;49.080;19.302;2023-05-23T06:29:35;8.98;;;4.25;;
58354;SDS011;44160;49.080;19.302;2023-05-23T06:32:01;8.27;;;3.83;;
58354;SDS011;44160;49.080;19.302;2023-05-23T06:34:27;5.10;;;3.50;;
58354;SDS011;44160;49.080;19.302;2023-05-23T06:36:54;14.18;;;4.28;;
58354;SDS011;44160;49.080;19.302;2023-05-23T06:39:20;9.98;;;4.63;;
58354;SDS011;44160;49.080;19.302;2023-05-23T06:41:51;9.63;;;4.55;;
58354;SDS011;44160;49.080;19.302;2023-05-23T06:44:17;5.90;;;3.65;;
58354;SDS011;44160;49.080;19.302;2023-05-23T06:46:44;7.85;;;3.55;;
58354;SDS011;44160;49.080;19.302;2023-05-23T06:49:11;6.95;;;3.75;;
58354;SDS011;44160;49.080;19.302;2023-05-23T06:51:37;8.38;;;3.78;;
58354;SDS011;44160;49.080;19.302;2023-05-23T06:54:03;11.00;;;4.18;;
58354;SDS011;44160;49.080;19.302;2023-05-23T06:56:29;12.20;;;3.88;;
58354;SDS011;44160;49.080;19.302;2023-05-23T06:58:55;6.40;;;3.92;;
58354;SDS011;44160;49.080;19.302;2023-05-23T07:01:21;5.63;;;4.25;;
58354;SDS011;44160;49.080;19.302;2023-05-23T07:03:47;11.57;;;4.28;;
58354;SDS011;44160;49.080;19.302;2023-05-23T07:06:13;6.65;;;3.80;;
58354;SDS011;44160;49.080;19.302;2023-05-23T07:08:39;6.78;;;3.60;;
58354;SDS011;44160;49.080;19.302;2023-05-23T07:11:05;6.57;;;3.50;;
58354;SDS011;44160;49.080;19.302;2023-05-23T07:13:31;7.20;;;4.00;;
58354;SDS011;44160;49.080;19.302;2023-05-23T07:15:58;6.13;;;3.70;;
58354;SDS011;44160;49.080;19.302;2023-05-23T07:18:24;6.40;;;3.45;;
58354;SDS011;44160;49.080;19.302;2023-05-23T07:20:50;9.60;;;3.92;;
58354;SDS011;44160;49.080;19.302;2023-05-23T07:23:16;6.32;;;3.70;;
58354;SDS011;44160;49.080;19.302;2023-05-23T07:25:42;6.47;;;3.97;;
58354;SDS011;44160;49.080;19.302;2023-05-23T07:28:08;7.43;;;3.83;;
58354;SDS011;44160;49.080;19.302;2023-05-23T07:30:34;13.25;;;3.67;;
58354;SDS011;44160;49.080;19.302;2023-05-23T07:33:00;8.98;;;3.67;;
58354;SDS011;44160;49.080;19.302;2023-05-23T07:35:26;8.15;;;3.00;;
58354;SDS011;44160;49.080;19.302;2023-05-23T07:37:52;9.63;;;4.32;;
58354;SDS011;44160;49.080;19.302;2023-05-23T07:40:19;6.60;;;3.20;;
58354;SDS011;44160;49.080;19.302;2023-05-23T07:42:46;4.38;;;3.35;;
58354;SDS011;44160;49.080;19.302;2023-05-23T07:45:12;4.93;;;3.60;;
58354;SDS011;44160;49.080;19.302;2023-05-23T07:47:38;5.88;;;3.63;;
58354;SDS011;44160;49.080;19.302;2023-05-23T07:50:08;9.63;;;3.83;;
58354;SDS011;44160;49.080;19.302;2023-05-23T07:52:34;5.93;;;3.47;;
58354;SDS011;44160;49.080;19.302;2023-05-23T07:55:00;6.57;;;3.70;;
58354;SDS011;44160;49.080;19.302;2023-05-23T07:57:26;7.97;;;3.90;;
58354;SDS011;44160;49.080;19.302;2023-05-23T07:59:55;6.53;;;4.10;;
58354;SDS011;44160;49.080;19.302;2023-05-23T08:02:21;9.82;;;3.95;;
58354;SDS011;44160;49.080;19.302;2023-05-23T08:04:50;9.68;;;3.63;;
58354;SDS011;44160;49.080;19.302;2023-05-23T08:07:17;7.03;;;3.70;;
58354;SDS011;44160;49.080;19.302;2023-05-23T08:09:44;5.45;;;3.00;;
58354;SDS011;44160;49.080;19.302;2023-05-23T08:12:11;4.53;;;3.30;;
58354;SDS011;44160;49.080;19.302;2023-05-23T08:14:38;11.77;;;3.75;;
58354;SDS011;44160;49.080;19.302;2023-05-23T08:17:04;6.88;;;3.30;;
58354;SDS011;44160;49.080;19.302;2023-05-23T08:19:30;10.18;;;3.50;;
58354;SDS011;44160;49.080;19.302;2023-05-23T08:22:05;11.63;;;3.22;;
58354;SDS011;44160;49.080;19.302;2023-05-23T08:24:34;7.93;;;3.35;;
58354;SDS011;44160;49.080;19.302;2023-05-23T08:27:18;8.02;;;3.30;;
58354;SDS011;44160;49.080;19.302;2023-05-23T08:29:44;5.43;;;2.75;;
58354;SDS011;44160;49.080;19.302;2023-05-23T08:32:12;7.07;;;3.33;;
58354;SDS011;44160;49.080;19.302;2023-05-23T08:34:38;10.55;;;4.03;;
58354;SDS011;44160;49.080;19.302;2023-05-23T08:37:05;10.65;;;3.80;;
58354;SDS011;44160;49.080;19.302;2023-05-23T08:39:31;5.30;;;3.42;;
58354;SDS011;44160;49.080;19.302;2023-05-23T08:41:57;6.88;;;3.30;;
58354;SDS011;44160;49.080;19.302;2023-05-23T08:44:24;6.90;;;3.10;;
58354;SDS011;44160;49.080;19.302;2023-05-23T08:46:51;5.63;;;3.40;;
58354;SDS011;44160;49.080;19.302;2023-05-23T08:49:17;9.68;;;3.30;;
58354;SDS011;44160;49.080;19.302;2023-05-23T08:51:44;7.32;;;3.28;;
58354;SDS011;44160;49.080;19.302;2023-05-23T08:54:11;6.60;;;3.60;;
58354;SDS011;44160;49.080;19.302;2023-05-23T08:56:37;9.73;;;3.33;;
58354;SDS011;44160;49.080;19.302;2023-05-23T08:59:07;5.00;;;3.35;;
58354;SDS011;44160;49.080;19.302;2023-05-23T09:01:35;5.75;;;3.28;;
58354;SDS011;44160;49.080;19.302;2023-05-23T09:04:04;5.32;;;3.28;;
58354;SDS011;44160;49.080;19.302;2023-05-23T09:06:31;9.40;;;3.22;;
58354;SDS011;44160;49.080;19.302;2023-05-23T09:08:57;6.45;;;3.10;;
58354;SDS011;44160;49.080;19.302;2023-05-23T09:11:23;8.15;;;3.08;;
58354;SDS011;44160;49.080;19.302;2023-05-23T09:13:49;5.68;;;3.38;;
58354;SDS011;44160;49.080;19.302;2023-05-23T09:16:15;3.65;;;2.88;;
58354;SDS011;44160;49.080;19.302;2023-05-23T09:18:43;3.72;;;2.95;;
58354;SDS011;44160;49.080;19.302;2023-05-23T09:21:10;7.00;;;3.30;;
58354;SDS011;44160;49.080;19.302;2023-05-23T09:23:36;3.63;;;2.47;;
58354;SDS011;44160;49.080;19.302;2023-05-23T09:26:06;8.87;;;3.50;;
58354;SDS011;44160;49.080;19.302;2023-05-23T09:28:32;5.07;;;3.40;;
58354;SDS011;44160;49.080;19.302;2023-05-23T09:31:00;2.88;;;2.42;;
58354;SDS011;44160;49.080;19.302;2023-05-23T09:33:34;4.78;;;2.90;;
58354;SDS011;44160;49.080;19.302;2023-05-23T09:36:02;3.97;;;2.75;;
58354;SDS011;44160;49.080;19.302;2023-05-23T09:38:29;3.75;;;2.40;;
58354;SDS011;44160;49.080;19.302;2023-05-23T09:40:58;3.25;;;2.60;;
58354;SDS011;44160;49.080;19.302;2023-05-23T09:43:24;4.82;;;2.75;;
58354;SDS011;44160;49.080;19.302;2023-05-23T09:45:52;4.03;;;2.60;;
58354;SDS011;44160;49.080;19.302;2023-05-23T09:48:19;4.65;;;2.35;;
58354;SDS011;44160;49.080;19.302;2023-05-23T09:50:53;3.47;;;2.65;;
58354;SDS011;44160;49.080;19.302;2023-05-23T09:53:20;5.72;;;3.03;;
58354;SDS011;44160;49.080;19.302;2023-05-23T09:55:48;7.60;;;2.83;;
58354;SDS011;44160;49.080;19.302;2023-05-23T09:58:16;3.00;;;2.45;;
58354;SDS011;44160;49.080;19.302;2023-05-23T10:00:44;4.53;;;2.45;;
58354;SDS011;44160;49.080;19.302;2023-05-23T10:03:11;3.65;;;2.40;;
58354;SDS011;44160;49.080;19.302;2023-05-23T10:08:12;4.88;;;2.47;;
58354;SDS011;44160;49.080;19.302;2023-05-23T10:13:34;4.30;;;2.83;;
58354;SDS011;44160;49.080;19.302;2023-05-23T10:18:47;4.55;;;2.70;;
58354;SDS011;44160;49.080;19.302;2023-05-23T10:21:14;2.97;;;2.55;;
58354;SDS011;44160;49.080;19.302;2023-05-23T10:23:45;3.80;;;2.30;;
58354;SDS011;44160;49.080;19.302;2023-05-23T10:26:12;8.15;;;2.70;;
58354;SDS011;44160;49.080;19.302;2023-05-23T10:28:38;5.68;;;3.13;;
58354;SDS011;44160;49.080;19.302;2023-05-23T10:31:05;3.38;;;2.70;;
58354;SDS011;44160;49.080;19.302;2023-05-23T10:33:32;7.53;;;2.97;;
58354;SDS011;44160;49.080;19.302;2023-05-23T10:36:11;7.68;;;2.92;;
58354;SDS011;44160;49.080;19.302;2023-05-23T10:38:40;6.95;;;2.85;;
58354;SDS011;44160;49.080;19.302;2023-05-23T10:41:09;5.10;;;3.22;;
58354;SDS011;44160;49.080;19.302;2023-05-23T10:46:01;4.57;;;2.72;;
58354;SDS011;44160;49.080;19.302;2023-05-23T10:53:49;4.82;;;3.33;;
58354;SDS011;44160;49.080;19.302;2023-05-23T10:56:18;5.53;;;3.13;;
58354;SDS011;44160;49.080;19.302;2023-05-23T11:01:14;4.88;;;2.80;;
58354;SDS011;44160;49.080;19.302;2023-05-23T11:09:03;9.05;;;3.47;;
58354;SDS011;44160;49.080;19.302;2023-05-23T11:14:17;4.75;;;3.25;;
58354;SDS011;44160;49.080;19.302;2023-05-23T11:16:44;6.05;;;3.28;;
58354;SDS011;44160;49.080;19.302;2023-05-23T11:27:29;4.28;;;3.08;;
58354;SDS011;44160;49.080;19.302;2023-05-23T11:30:00;4.25;;;2.88;;
58354;SDS011;44160;49.080;19.302;2023-05-23T11:32:27;3.80;;;2.85;;
58354;SDS011;44160;49.080;19.302;2023-05-23T11:34:59;3.58;;;2.95;;
58354;SDS011;44160;49.080;19.302;2023-05-23T11:37:26;5.47;;;2.93;;
58354;SDS011;44160;49.080;19.302;2023-05-23T11:39:52;4.25;;;2.97;;
58354;SDS011;44160;49.080;19.302;2023-05-23T11:42:19;4.47;;;2.95;;
58354;SDS011;44160;49.080;19.302;2023-05-23T11:44:47;5.35;;;3.28;;
58354;SDS011;44160;49.080;19.302;2023-05-23T11:47:14;5.25;;;3.40;;
58354;SDS011;44160;49.080;19.302;2023-05-23T11:49:43;5.63;;;2.88;;
58354;SDS011;44160;49.080;19.302;2023-05-23T11:52:10;7.85;;;2.97;;
58354;SDS011;44160;49.080;19.302;2023-05-23T11:54:38;5.60;;;3.05;;
58354;SDS011;44160;49.080;19.302;2023-05-23T11:57:08;3.97;;;2.75;;
58354;SDS011;44160;49.080;19.302;2023-05-23T11:59:34;7.10;;;2.97;;
58354;SDS011;44160;49.080;19.302;2023-05-23T12:02:01;5.18;;;3.15;;
58354;SDS011;44160;49.080;19.302;2023-05-23T12:04:27;6.55;;;2.53;;
58354;SDS011;44160;49.080;19.302;2023-05-23T12:06:56;6.20;;;2.33;;
58354;SDS011;44160;49.080;19.302;2023-05-23T12:09:24;4.97;;;2.90;;
58354;SDS011;44160;49.080;19.302;2023-05-23T12:11:59;6.43;;;2.42;;
58354;SDS011;44160;49.080;19.302;2023-05-23T12:14:27;6.55;;;2.22;;
58354;SDS011;44160;49.080;19.302;2023-05-23T12:16:54;3.40;;;2.20;;
58354;SDS011;44160;49.080;19.302;2023-05-23T12:19:21;11.52;;;3.28;;
58354;SDS011;44160;49.080;19.302;2023-05-23T12:21:48;5.28;;;2.63;;
58354;SDS011;44160;49.080;19.302;2023-05-23T12:24:15;9.73;;;2.75;;
58354;SDS011;44160;49.080;19.302;2023-05-23T12:29:20;6.32;;;2.20;;
58354;SDS011;44160;49.080;19.302;2023-05-23T12:31:47;9.80;;;2.88;;
58354;SDS011;44160;49.080;19.302;2023-05-23T12:34:14;5.68;;;2.40;;
58354;SDS011;44160;49.080;19.302;2023-05-23T12:36:41;5.78;;;2.80;;
58354;SDS011;44160;49.080;19.302;2023-05-23T12:39:08;4.30;;;2.55;;
58354;SDS011;44160;49.080;19.302;2023-05-23T12:41:34;3.80;;;2.22;;
58354;SDS011;44160;49.080;19.302;2023-05-23T12:44:01;5.78;;;2.40;;
58354;SDS011;44160;49.080;19.302;2023-05-23T12:46:28;3.35;;;2.65;;
58354;SDS011;44160;49.080;19.302;2023-05-23T12:48:54;6.70;;;2.97;;
58354;SDS011;44160;49.080;19.302;2023-05-23T12:51:20;9.13;;;3.13;;
58354;SDS011;44160;49.080;19.302;2023-05-23T12:53:46;7.20;;;3.22;;
58354;SDS011;44160;49.080;19.302;2023-05-23T12:56:12;8.73;;;4.13;;
58354;SDS011;44160;49.080;19.302;2023-05-23T12:58:40;6.20;;;3.55;;
58354;SDS011;44160;49.080;19.302;2023-05-23T13:01:07;11.77;;;4.15;;
58354;SDS011;44160;49.080;19.302;2023-05-23T13:03:36;11.18;;;3.65;;
58354;SDS011;44160;49.080;19.302;2023-05-23T13:06:08;9.00;;;4.05;;
58354;SDS011;44160;49.080;19.302;2023-05-23T13:08:34;13.63;;;5.05;;
58354;SDS011;44160;49.080;19.302;2023-05-23T13:11:04;11.77;;;5.65;;
58354;SDS011;44160;49.080;19.302;2023-05-23T13:13:30;8.05;;;4.50;;
58354;SDS011;44160;49.080;19.302;2023-05-23T13:15:57;6.05;;;3.70;;
58354;SDS011;44160;49.080;19.302;2023-05-23T13:18:24;8.98;;;4.72;;
58354;SDS011;44160;49.080;19.302;2023-05-23T13:20:50;7.10;;;3.80;;
58354;SDS011;44160;49.080;19.302;2023-05-23T13:23:16;7.70;;;3.90;;
58354;SDS011;44160;49.080;19.302;2023-05-23T13:25:42;6.75;;;4.18;;
58354;SDS011;44160;49.080;19.302;2023-05-23T13:28:09;6.00;;;4.25;;
58354;SDS011;44160;49.080;19.302;2023-05-23T13:30:35;11.32;;;4.43;;
58354;SDS011;44160;49.080;19.302;2023-05-23T13:33:01;8.27;;;3.85;;
58354;SDS011;44160;49.080;19.302;2023-05-23T13:35:29;6.10;;;3.85;;
58354;SDS011;44160;49.080;19.302;2023-05-23T13:38:05;6.38;;;3.80;;
58354;SDS011;44160;49.080;19.302;2023-05-23T13:40:31;7.95;;;4.80;;
58354;SDS011;44160;49.080;19.302;2023-05-23T13:42:58;5.90;;;4.32;;
58354;SDS011;44160;49.080;19.302;2023-05-23T13:45:24;6.20;;;3.90;;
58354;SDS011;44160;49.080;19.302;2023-05-23T13:48:00;6.88;;;4.35;;
58354;SDS011;44160;49.080;19.302;2023-05-23T13:50:26;9.13;;;3.90;;
58354;SDS011;44160;49.080;19.302;2023-05-23T13:52:52;9.15;;;4.03;;
58354;SDS011;44160;49.080;19.302;2023-05-23T13:55:19;8.63;;;3.83;;
58354;SDS011;44160;49.080;19.302;2023-05-23T13:57:47;5.63;;;3.97;;
58354;SDS011;44160;49.080;19.302;2023-05-23T14:00:13;5.18;;;3.90;;
58354;SDS011;44160;49.080;19.302;2023-05-23T14:02:45;4.88;;;3.15;;
58354;SDS011;44160;49.080;19.302;2023-05-23T14:05:15;8.73;;;4.05;;
58354;SDS011;44160;49.080;19.302;2023-05-23T14:07:45;7.65;;;3.60;;
58354;SDS011;44160;49.080;19.302;2023-05-23T14:10:11;6.30;;;3.83;;
58354;SDS011;44160;49.080;19.302;2023-05-23T14:12:45;4.22;;;3.83;;
58354;SDS011;44160;49.080;19.302;2023-05-23T14:15:21;5.68;;;3.70;;
58354;SDS011;44160;49.080;19.302;2023-05-23T14:17:50;5.70;;;4.18;;
58354;SDS011;44160;49.080;19.302;2023-05-23T14:20:19;5.53;;;4.20;;
58354;SDS011;44160;49.080;19.302;2023-05-23T14:22:46;5.60;;;4.28;;
58354;SDS011;44160;49.080;19.302;2023-05-23T14:25:13;6.68;;;4.65;;
58354;SDS011;44160;49.080;19.302;2023-05-23T14:27:39;5.43;;;4.35;;
58354;SDS011;44160;49.080;19.302;2023-05-23T14:30:05;6.28;;;4.68;;
58354;SDS011;44160;49.080;19.302;2023-05-23T14:32:34;10.00;;;4.65;;
58354;SDS011;44160;49.080;19.302;2023-05-23T14:35:03;8.90;;;5.15;;
58354;SDS011;44160;49.080;19.302;2023-05-23T14:37:29;7.65;;;4.38;;
58354;SDS011;44160;49.080;19.302;2023-05-23T14:39:58;6.80;;;5.00;;
58354;SDS011;44160;49.080;19.302;2023-05-23T14:42:30;5.07;;;4.50;;
58354;SDS011;44160;49.080;19.302;2023-05-23T14:44:58;6.32;;;4.65;;
58354;SDS011;44160;49.080;19.302;2023-05-23T14:47:27;7.25;;;4.60;;
58354;SDS011;44160;49.080;19.302;2023-05-23T14:49:54;5.68;;;4.32;;
58354;SDS011;44160;49.080;19.302;2023-05-23T14:52:26;7.72;;;4.53;;
58354;SDS011;44160;49.080;19.302;2023-05-23T14:55:00;7.60;;;4.38;;
58354;SDS011;44160;49.080;19.302;2023-05-23T14:57:29;11.57;;;4.85;;
58354;SDS011;44160;49.080;19.302;2023-05-23T14:59:55;10.05;;;4.30;;
58354;SDS011;44160;49.080;19.302;2023-05-23T15:02:22;8.98;;;4.50;;
58354;SDS011;44160;49.080;19.302;2023-05-23T15:04:48;8.25;;;4.75;;
58354;SDS011;44160;49.080;19.302;2023-05-23T15:07:17;7.43;;;4.82;;
58354;SDS011;44160;49.080;19.302;2023-05-23T15:09:43;8.25;;;4.45;;
58354;SDS011;44160;49.080;19.302;2023-05-23T15:12:17;7.80;;;4.70;;
58354;SDS011;44160;49.080;19.302;2023-05-23T15:14:55;9.38;;;4.50;;
58354;SDS011;44160;49.080;19.302;2023-05-23T15:17:30;6.65;;;4.68;;